createdAt,value
2023-01-19T00:00:39.081Z,-2.85
2023-01-19T00:03:05.559Z,-2.85
2023-01-19T00:05:33.789Z,-2.93
2023-01-19T00:08:15.049Z,-2.97
2023-01-19T00:10:42.387Z,-2.98
2023-01-19T00:13:08.793Z,-2.92
2023-01-19T00:15:35.347Z,-2.99
2023-01-19T00:18:01.610Z,-2.96
2023-01-19T00:20:27.921Z,-3.03
2023-01-19T00:22:54.203Z,-3.13
2023-01-19T00:25:20.475Z,-3.24
2023-01-19T00:27:49.371Z,-3.32
2023-01-19T00:30:15.954Z,-3.36
2023-01-19T00:32:42.264Z,-3.34
2023-01-19T00:35:08.571Z,-3.39
2023-01-19T00:37:34.983Z,-3.36
2023-01-19T00:40:01.646Z,-3.37
2023-01-19T00:42:40.150Z,-3.38
2023-01-19T00:45:11.043Z,-3.60
2023-01-19T00:47:39.132Z,-3.62
2023-01-19T00:50:06.063Z,-3.54
2023-01-19T00:52:32.544Z,-3.50
2023-01-19T00:54:58.800Z,-3.47
2023-01-19T00:57:25.186Z,-3.43
2023-01-19T00:59:51.457Z,-3.47
2023-01-19T01:02:17.865Z,-3.59
2023-01-19T01:04:44.298Z,-3.81
2023-01-19T01:07:10.776Z,-4.09
2023-01-19T01:09:37.188Z,-4.03
2023-01-19T01:12:03.852Z,-4.25
2023-01-19T01:14:32.437Z,-4.28
2023-01-19T01:16:58.773Z,-4.29
2023-01-19T01:19:25.048Z,-4.33
2023-01-19T01:21:51.383Z,-4.41
2023-01-19T01:24:18.778Z,-4.33
2023-01-19T01:26:45.059Z,-4.28
2023-01-19T01:29:11.555Z,-4.47
2023-01-19T01:31:37.889Z,-4.38
2023-01-19T01:34:04.255Z,-4.53
2023-01-19T01:36:33.561Z,-4.67
2023-01-19T01:39:00.168Z,-4.59
2023-01-19T01:41:27.496Z,-4.53
2023-01-19T01:43:58.167Z,-4.61
2023-01-19T01:46:25.713Z,-4.63
2023-01-19T01:48:55.489Z,-4.80
2023-01-19T01:51:25.340Z,-4.94
2023-01-19T01:54:11.875Z,-4.78
2023-01-19T01:56:39.642Z,-4.86
2023-01-19T01:59:09.243Z,-4.88
2023-01-19T02:01:54.838Z,-4.92
2023-01-19T02:04:22.078Z,-5.02
2023-01-19T02:07:06.995Z,-5.44
2023-01-19T02:09:53.391Z,-5.67
2023-01-19T02:12:38.394Z,-5.61
2023-01-19T02:15:04.954Z,-5.87
2023-01-19T02:17:31.323Z,-6.19
2023-01-19T02:19:58.101Z,-6.60
2023-01-19T02:22:38.538Z,-6.62
2023-01-19T02:25:05.252Z,-6.31
2023-01-19T02:27:32.105Z,-6.13
2023-01-19T02:29:59.217Z,-6.05
2023-01-19T02:32:25.663Z,-6.00
2023-01-19T02:34:52.186Z,-6.12
2023-01-19T02:37:19.032Z,-6.16
2023-01-19T02:39:50.677Z,-6.06
2023-01-19T02:42:22.962Z,-5.97
2023-01-19T02:44:50.399Z,-5.93
2023-01-19T02:47:16.742Z,-5.91
2023-01-19T02:49:43.061Z,-6.10
2023-01-19T02:52:16.008Z,-6.10
2023-01-19T02:55:01.872Z,-6.00
2023-01-19T02:57:36.232Z,-5.94
2023-01-19T03:17:17.905Z,-6.56
2023-01-19T03:19:45.862Z,-6.74
2023-01-19T03:22:17.398Z,-7.23
2023-01-19T03:24:45.834Z,-7.54
2023-01-19T03:27:14.967Z,-7.55
2023-01-19T03:29:43.052Z,-7.49
2023-01-19T03:32:12.196Z,-7.54
2023-01-19T03:34:39.103Z,-7.63
2023-01-19T03:37:07.432Z,-7.51
2023-01-19T03:39:33.899Z,-7.40
2023-01-19T03:42:03.106Z,-7.30
2023-01-19T03:44:30.796Z,-7.25
2023-01-19T03:46:58.474Z,-7.16
2023-01-19T03:49:25.142Z,-7.13
2023-01-19T03:51:54.935Z,-7.08
2023-01-19T03:54:21.235Z,-7.03
2023-01-19T03:56:47.515Z,-6.91
2023-01-19T03:59:17.414Z,-7.00
2023-01-19T04:01:43.806Z,-6.93
2023-01-19T04:04:10.147Z,-6.92
2023-01-19T04:06:36.581Z,-6.98
2023-01-19T04:09:02.880Z,-6.86
2023-01-19T04:11:29.210Z,-6.89
2023-01-19T04:13:55.470Z,-7.02
2023-01-19T04:16:21.934Z,-7.01
2023-01-19T04:18:49.799Z,-6.90
2023-01-19T04:21:16.245Z,-6.83
2023-01-19T04:23:44.362Z,-6.95
2023-01-19T04:26:10.642Z,-6.98
2023-01-19T04:28:37.173Z,-6.89
2023-01-19T04:31:04.339Z,-6.88
2023-01-19T04:33:30.754Z,-6.86
2023-01-19T04:35:57.433Z,-6.87
2023-01-19T04:38:24.786Z,-6.90
2023-01-19T04:40:52.715Z,-7.04
2023-01-19T04:43:19.707Z,-7.10
2023-01-19T04:45:46.543Z,-6.97
2023-01-19T04:48:13.453Z,-6.99
2023-01-19T04:50:40.084Z,-7.02
2023-01-19T04:53:06.375Z,-7.05
2023-01-19T04:55:32.625Z,-7.04
2023-01-19T04:57:59.416Z,-7.14
2023-01-19T05:00:26.807Z,-7.10
2023-01-19T05:02:53.443Z,-7.05
2023-01-19T05:05:19.802Z,-7.10
2023-01-19T05:07:46.884Z,-7.14
2023-01-19T05:10:13.550Z,-7.17
2023-01-19T05:12:39.941Z,-7.19
2023-01-19T05:15:07.772Z,-7.22
2023-01-19T05:17:34.473Z,-7.21
2023-01-19T05:20:00.762Z,-7.21
2023-01-19T05:22:27.168Z,-7.23
2023-01-19T05:24:53.645Z,-7.32
2023-01-19T05:27:19.984Z,-7.37
2023-01-19T05:29:46.267Z,-7.38
2023-01-19T05:32:13.621Z,-7.41
2023-01-19T05:34:40.093Z,-7.46
2023-01-19T05:37:06.455Z,-7.58
2023-01-19T05:39:33.434Z,-7.47
2023-01-19T05:41:59.767Z,-7.40
2023-01-19T05:44:26.065Z,-7.48
2023-01-19T05:46:52.398Z,-7.43
2023-01-19T05:49:18.710Z,-7.59
2023-01-19T05:51:45.498Z,-7.68
2023-01-19T05:54:13.019Z,-7.63
2023-01-19T05:56:39.477Z,-7.55
2023-01-19T05:59:05.856Z,-7.38
2023-01-19T06:01:34.766Z,-7.43
2023-01-19T06:04:01.025Z,-7.47
2023-01-19T06:06:27.334Z,-7.53
2023-01-19T06:08:53.743Z,-7.81
2023-01-19T06:11:20.921Z,-7.62
2023-01-19T06:13:47.479Z,-7.63
2023-01-19T06:16:14.701Z,-7.54
2023-01-19T06:18:41.166Z,-7.48
2023-01-19T06:21:08.189Z,-7.39
2023-01-19T06:23:35.174Z,-7.38
2023-01-19T06:26:01.927Z,-7.33
2023-01-19T06:28:28.273Z,-7.37
2023-01-19T06:30:55.398Z,-7.37
2023-01-19T06:33:22.166Z,-7.46
2023-01-19T06:35:49.419Z,-7.40
2023-01-19T06:38:18.433Z,-7.37
2023-01-19T06:40:45.803Z,-7.37
2023-01-19T06:43:12.830Z,-7.33
2023-01-19T06:45:39.321Z,-7.34
2023-01-19T06:48:06.172Z,-7.36
2023-01-19T06:50:32.550Z,-7.29
2023-01-19T06:52:59.151Z,-7.10
2023-01-19T06:55:25.584Z,-6.97
2023-01-19T06:58:01.316Z,-6.72
2023-01-19T07:00:27.611Z,-6.53
2023-01-19T07:02:54.025Z,-6.64
2023-01-19T07:05:22.058Z,-6.64
2023-01-19T07:07:52.198Z,-6.67
2023-01-19T07:10:18.520Z,-6.72
2023-01-19T07:12:47.227Z,-6.56
2023-01-19T07:15:14.745Z,-6.40
2023-01-19T07:17:42.204Z,-6.34
2023-01-19T07:20:14.203Z,-6.29
2023-01-19T07:22:41.365Z,-6.25
2023-01-19T07:25:07.823Z,-6.20
2023-01-19T07:27:34.330Z,-6.22
2023-01-19T07:30:01.209Z,-6.29
2023-01-19T07:32:28.369Z,-6.28
2023-01-19T07:34:54.655Z,-6.29
2023-01-19T07:37:21.260Z,-6.30
2023-01-19T07:39:47.599Z,-6.27
2023-01-19T07:42:13.963Z,-6.11
2023-01-19T07:44:40.224Z,-6.24
2023-01-19T07:47:07.559Z,-6.07
2023-01-19T07:49:33.872Z,-5.96
2023-01-19T07:52:00.171Z,-5.80
2023-01-19T07:54:26.501Z,-5.67
2023-01-19T07:56:55.692Z,-5.56
2023-01-19T07:59:22.076Z,-5.49
2023-01-19T08:01:48.710Z,-5.28
2023-01-19T08:04:15.018Z,-5.07
2023-01-19T08:06:44.836Z,-4.74
2023-01-19T08:09:11.942Z,-4.28
2023-01-19T08:11:38.407Z,-3.94
2023-01-19T08:14:06.949Z,-3.36
2023-01-19T08:16:34.334Z,-2.92
2023-01-19T08:19:00.628Z,-2.47
2023-01-19T08:21:27.660Z,-1.99
2023-01-19T08:23:54.777Z,-0.98
2023-01-19T08:26:27.823Z,-0.82
2023-01-19T08:28:55.483Z,-0.42
2023-01-19T08:31:24.586Z,-0.44
2023-01-19T08:33:51.659Z,-0.62
2023-01-19T08:36:25.436Z,-0.87
2023-01-19T08:38:51.926Z,-0.73
2023-01-19T08:41:18.388Z,-0.78
2023-01-19T08:43:45.543Z,-0.37
2023-01-19T08:46:12.430Z,0.00
2023-01-19T08:48:40.032Z,0.06
2023-01-19T08:51:10.052Z,0.02
2023-01-19T08:53:36.778Z,0.83
2023-01-19T08:56:03.854Z,0.63
2023-01-19T08:58:32.567Z,0.83
2023-01-19T09:04:28.753Z,0.62
2023-01-19T09:07:07.983Z,1.19
2023-01-19T09:09:37.963Z,1.59
2023-01-19T09:12:14.026Z,1.68
2023-01-19T09:18:06.180Z,1.87
2023-01-19T09:20:34.940Z,1.66
2023-01-19T09:23:09.499Z,1.90
2023-01-19T09:25:39.348Z,1.77
2023-01-19T09:28:07.296Z,1.83
2023-01-19T09:30:34.378Z,1.96
2023-01-19T09:33:07.032Z,2.18
2023-01-19T09:35:37.708Z,2.36
2023-01-19T09:38:05.818Z,2.45
2023-01-19T09:40:32.803Z,2.54
2023-01-19T09:46:28.332Z,2.49
2023-01-19T09:49:01.257Z,2.42
2023-01-19T09:51:36.937Z,2.18
2023-01-19T09:54:08.582Z,2.52
2023-01-19T09:56:35.930Z,2.48
2023-01-19T09:59:06.314Z,2.63
2023-01-19T10:01:35.179Z,2.46
2023-01-19T10:04:18.244Z,2.25
2023-01-19T10:06:48.362Z,2.15
2023-01-19T10:09:25.562Z,1.90
2023-01-19T10:11:58.583Z,1.91
2023-01-19T10:14:46.126Z,1.71
2023-01-19T10:17:19.635Z,2.32
2023-01-19T10:19:52.055Z,2.46
2023-01-19T10:22:32.684Z,2.37
2023-01-19T10:25:08.295Z,2.53
2023-01-19T10:27:39.121Z,2.33
2023-01-19T10:30:07.900Z,2.61
2023-01-19T10:32:36.739Z,2.67
2023-01-19T10:35:36.767Z,2.51
2023-01-19T10:38:05.367Z,2.18
2023-01-19T10:40:58.994Z,2.72
2023-01-19T10:43:35.160Z,2.56
2023-01-19T10:46:14.660Z,2.26
2023-01-19T10:48:42.311Z,2.62
2023-01-19T10:51:10.113Z,3.02
2023-01-19T10:53:38.183Z,3.09
2023-01-19T10:56:17.768Z,3.15
2023-01-19T10:58:44.189Z,3.23
2023-01-19T11:01:15.301Z,2.76
2023-01-19T11:03:41.904Z,3.01
2023-01-19T11:06:15.411Z,3.18
2023-01-19T11:08:42.642Z,3.29
2023-01-19T11:11:09.316Z,3.65
2023-01-19T11:13:36.093Z,3.91
2023-01-19T11:16:06.552Z,4.35
2023-01-19T11:18:34.442Z,4.67
2023-01-19T11:21:09.253Z,4.21
2023-01-19T11:23:41.970Z,4.92
2023-01-19T11:26:18.393Z,5.03
2023-01-19T11:28:48.647Z,4.63
2023-01-19T11:31:15.134Z,5.34
2023-01-19T11:33:49.782Z,5.80
2023-01-19T11:36:21.582Z,4.80
2023-01-19T11:38:50.555Z,5.40
2023-01-19T11:41:21.556Z,5.24
2023-01-19T11:43:50.182Z,5.32
2023-01-19T11:46:17.547Z,4.74
2023-01-19T11:48:56.568Z,3.77
2023-01-19T11:51:23.432Z,3.44
2023-01-19T11:53:51.989Z,3.08
2023-01-19T11:56:20.589Z,2.04
2023-01-19T11:58:47.414Z,1.72
2023-01-19T12:01:34.224Z,1.70
2023-01-19T12:04:06.802Z,1.94
2023-01-19T12:06:35.510Z,1.93
2023-01-19T12:09:05.100Z,1.85
2023-01-19T12:11:34.661Z,1.74
2023-01-19T12:14:01.341Z,1.48
2023-01-19T12:16:32.904Z,1.11
2023-01-19T12:19:10.916Z,1.10
2023-01-19T12:21:37.737Z,0.86
2023-01-19T12:24:11.951Z,0.95
2023-01-19T12:26:43.831Z,0.69
2023-01-19T12:29:15.286Z,0.75
2023-01-19T12:31:43.088Z,0.85
2023-01-19T12:34:31.222Z,0.91
2023-01-19T12:37:02.801Z,0.91
2023-01-19T12:39:29.351Z,0.79
2023-01-19T12:42:06.275Z,0.73
2023-01-19T12:44:34.373Z,0.80
2023-01-19T12:47:15.811Z,0.66
2023-01-19T12:49:44.032Z,0.77
2023-01-19T12:52:19.668Z,0.70
2023-01-19T12:55:09.175Z,0.80
2023-01-19T12:57:35.514Z,0.86
2023-01-19T13:00:04.217Z,0.99
2023-01-19T13:02:33.563Z,1.14
2023-01-19T13:05:18.081Z,1.03
2023-01-19T13:08:02.862Z,1.24
2023-01-19T13:10:47.775Z,1.30
2023-01-19T13:13:29.345Z,1.19
2023-01-19T13:15:56.535Z,1.13
2023-01-19T13:18:22.786Z,1.08
2023-01-19T13:20:52.988Z,1.29
2023-01-19T13:23:21.853Z,1.21
2023-01-19T13:25:53.380Z,1.06
2023-01-19T13:28:24.088Z,1.05
2023-01-19T13:30:55.538Z,0.95
2023-01-19T13:33:23.394Z,0.78
2023-01-19T13:35:51.572Z,0.83
2023-01-19T13:38:18.576Z,0.89
2023-01-19T13:40:45.630Z,0.89
2023-01-19T13:43:17.289Z,0.71
2023-01-19T13:45:49.568Z,0.87
2023-01-19T13:48:19.120Z,0.73
2023-01-19T13:50:56.620Z,0.79
2023-01-19T13:53:24.212Z,0.72
2023-01-19T13:56:16.470Z,0.70
2023-01-19T13:58:42.834Z,0.81
2023-01-19T14:01:22.948Z,0.90
2023-01-19T14:03:52.389Z,1.00
2023-01-19T14:06:23.154Z,0.81
2023-01-19T14:09:05.341Z,0.78
2023-01-19T14:11:31.637Z,0.57
2023-01-19T14:13:57.915Z,0.47
2023-01-19T14:16:25.078Z,0.55
2023-01-19T14:19:02.204Z,0.53
2023-01-19T14:21:37.720Z,0.53
2023-01-19T14:24:08.014Z,0.49
2023-01-19T14:26:37.015Z,0.50
2023-01-19T14:29:15.517Z,0.51
2023-01-19T14:31:43.252Z,0.41
2023-01-19T14:34:28.487Z,0.39
2023-01-19T14:36:54.948Z,0.43
2023-01-19T14:39:23.343Z,0.47
2023-01-19T14:41:52.615Z,0.46
2023-01-19T14:44:20.118Z,0.43
2023-01-19T14:46:47.914Z,0.39
2023-01-19T14:49:19.052Z,0.42
2023-01-19T14:51:45.725Z,0.42
2023-01-19T14:54:16.046Z,0.38
2023-01-19T14:56:42.347Z,0.32
2023-01-19T14:59:09.783Z,0.34
2023-01-19T15:01:36.404Z,0.28
2023-01-19T15:04:03.472Z,0.26
2023-01-19T15:06:29.794Z,0.15
2023-01-19T15:08:56.220Z,0.14
2023-01-19T15:11:24.389Z,0.08
2023-01-19T15:13:51.298Z,-0.11
2023-01-19T15:16:18.345Z,-0.27
2023-01-19T15:18:44.757Z,-0.34
2023-01-19T15:21:14.073Z,-0.28
2023-01-19T15:23:41.105Z,-0.40
2023-01-19T15:26:07.770Z,-0.39
2023-01-19T15:28:34.081Z,-0.64
2023-01-19T15:31:00.405Z,-0.64
2023-01-19T15:33:28.040Z,-0.69
2023-01-19T15:35:54.350Z,-0.80
2023-01-19T15:38:20.795Z,-0.77
2023-01-19T15:40:51.177Z,-0.89
2023-01-19T15:43:17.911Z,-0.99
2023-01-19T15:45:48.382Z,-1.02
2023-01-19T15:48:14.749Z,-1.08
2023-01-19T15:50:42.330Z,-1.21
2023-01-19T15:53:15.707Z,-1.26
2023-01-19T15:55:42.269Z,-1.33
2023-01-19T15:58:08.622Z,-1.47
2023-01-19T16:00:35.012Z,-1.46
2023-01-19T16:03:02.497Z,-1.61
2023-01-19T16:05:41.770Z,-1.60
2023-01-19T16:08:08.867Z,-1.58
2023-01-19T16:10:35.257Z,-1.79
2023-01-19T16:13:01.554Z,-1.76
2023-01-19T16:15:27.920Z,-1.72
2023-01-19T16:17:54.216Z,-1.71
2023-01-19T16:20:20.493Z,-1.74
2023-01-19T16:22:46.824Z,-1.85
2023-01-19T16:25:13.115Z,-1.81
2023-01-19T16:27:39.477Z,-1.81
2023-01-19T16:30:06.119Z,-1.76
2023-01-19T16:32:33.040Z,-1.75
2023-01-19T16:34:59.507Z,-1.68
2023-01-19T16:37:27.996Z,-1.62
2023-01-19T16:39:54.501Z,-1.63
2023-01-19T16:42:20.839Z,-1.63
2023-01-19T16:44:47.180Z,-1.59
2023-01-19T16:47:13.546Z,-1.56
2023-01-19T16:49:39.917Z,-1.57
2023-01-19T16:52:07.183Z,-1.53
2023-01-19T16:54:33.759Z,-1.50
2023-01-19T16:57:00.193Z,-1.46
2023-01-19T16:59:27.192Z,-1.48
2023-01-19T17:01:53.662Z,-1.52
2023-01-19T17:04:20.309Z,-1.48
2023-01-19T17:06:46.762Z,-1.47
2023-01-19T17:09:13.640Z,-1.33
2023-01-19T17:11:40.419Z,-1.42
2023-01-19T17:14:08.315Z,-1.44
2023-01-19T17:16:35.666Z,-1.43
2023-01-19T17:19:03.508Z,-1.42
2023-01-19T17:21:30.240Z,-1.38
2023-01-19T17:23:57.399Z,-1.36
2023-01-19T17:26:25.684Z,-1.29
2023-01-19T17:28:52.035Z,-1.28
2023-01-19T17:31:19.717Z,-1.11
2023-01-19T17:33:47.223Z,-1.14
2023-01-19T17:36:14.867Z,-0.99
2023-01-19T17:38:43.964Z,-1.14
2023-01-19T17:41:17.548Z,-1.08
2023-01-19T17:43:44.160Z,-1.20
2023-01-19T17:46:10.855Z,-1.24
2023-01-19T17:48:37.459Z,-1.10
2023-01-19T17:51:08.256Z,-1.06
2023-01-19T17:53:36.260Z,-1.18
2023-01-19T17:56:04.032Z,-1.25
2023-01-19T17:58:31.442Z,-1.39
2023-01-19T18:00:58.187Z,-1.27
2023-01-19T18:03:25.143Z,-1.23
2023-01-19T18:05:55.041Z,-1.18
2023-01-19T18:08:21.667Z,-1.12
2023-01-19T18:10:54.674Z,-1.11
2023-01-19T18:13:21.241Z,-1.02
2023-01-19T18:15:47.579Z,-1.01
2023-01-19T18:18:13.900Z,-0.97
2023-01-19T18:20:40.695Z,-1.06
2023-01-19T18:23:07.177Z,-1.03
2023-01-19T18:25:33.461Z,-1.12
2023-01-19T18:27:59.813Z,-1.00
2023-01-19T18:30:26.277Z,-1.09
2023-01-19T18:32:52.621Z,-1.12
2023-01-19T18:35:19.010Z,-1.20
2023-01-19T18:37:45.464Z,-1.11
2023-01-19T18:40:12.299Z,-0.90
2023-01-19T18:42:38.736Z,-1.05
2023-01-19T18:45:05.280Z,-0.93
2023-01-19T18:47:33.021Z,-0.94
2023-01-19T18:49:59.429Z,-0.92
2023-01-19T18:52:26.025Z,-0.97
2023-01-19T18:54:52.574Z,-1.06
2023-01-19T18:57:18.898Z,-1.05
2023-01-19T18:59:46.169Z,-1.07
2023-01-19T19:02:13.333Z,-0.98
2023-01-19T19:04:40.167Z,-1.09
2023-01-19T19:07:06.489Z,-1.10
2023-01-19T19:09:32.810Z,-1.25
2023-01-19T19:11:59.150Z,-1.25
2023-01-19T19:14:25.455Z,-1.24
2023-01-19T19:16:51.787Z,-1.14
2023-01-19T19:19:18.482Z,-1.00
2023-01-19T19:21:44.967Z,-1.04
2023-01-19T19:24:13.383Z,-1.15
2023-01-19T19:26:40.067Z,-1.17
2023-01-19T19:29:06.352Z,-1.15
2023-01-19T19:31:32.678Z,-1.18
2023-01-19T19:33:59.351Z,-1.19
2023-01-19T19:36:26.682Z,-1.30
2023-01-19T19:38:53.063Z,-1.24
2023-01-19T19:41:21.204Z,-1.25
2023-01-19T19:43:47.640Z,-1.13
2023-01-19T19:46:15.316Z,-1.22
2023-01-19T19:48:42.077Z,-1.17
2023-01-19T19:51:18.110Z,-1.08
2023-01-19T19:53:45.507Z,-1.09
2023-01-19T19:56:15.265Z,-1.00
2023-01-19T19:58:42.324Z,-1.06
2023-01-19T20:01:08.826Z,-1.18
2023-01-19T20:03:35.173Z,-1.17
2023-01-19T20:06:05.658Z,-1.21
2023-01-19T20:08:32.071Z,-1.00
2023-01-19T20:11:08.703Z,-1.10
2023-01-19T20:13:35.724Z,-1.13
2023-01-19T20:16:05.556Z,-1.22
2023-01-19T20:18:32.296Z,-1.20
2023-01-19T20:20:58.898Z,-1.10
2023-01-19T20:23:25.233Z,-1.02
2023-01-19T20:25:51.772Z,-1.14
2023-01-19T20:28:18.177Z,-1.10
2023-01-19T20:30:44.517Z,-1.07
2023-01-19T20:33:10.809Z,-1.07
2023-01-19T20:35:37.084Z,-1.07
2023-01-19T20:38:03.443Z,-1.10
2023-01-19T20:40:29.755Z,-1.08
2023-01-19T20:42:56.063Z,-0.96
2023-01-19T20:45:22.552Z,-0.99
2023-01-19T20:47:48.947Z,-1.02
2023-01-19T20:50:15.247Z,-1.07
2023-01-19T20:52:41.558Z,-1.04
2023-01-19T20:55:08.791Z,-0.91
2023-01-19T20:57:35.107Z,-0.99
2023-01-19T21:00:01.409Z,-1.01
2023-01-19T21:02:28.603Z,-1.04
2023-01-19T21:04:55.054Z,-1.01
2023-01-19T21:07:21.430Z,-1.01
2023-01-19T21:09:47.693Z,-0.97
2023-01-19T21:12:15.957Z,-1.00
2023-01-19T21:14:43.859Z,-0.95
2023-01-19T21:17:10.212Z,-0.96
2023-01-19T21:19:36.578Z,-0.82
2023-01-19T21:22:02.946Z,-0.88
2023-01-19T21:24:29.496Z,-0.88
2023-01-19T21:26:55.798Z,-0.92
2023-01-19T21:29:22.116Z,-0.91
2023-01-19T21:31:48.422Z,-0.88
2023-01-19T21:34:14.720Z,-0.95
2023-01-19T21:36:41.273Z,-0.90
2023-01-19T21:39:08.129Z,-0.94
2023-01-19T21:41:35.837Z,-0.93
2023-01-19T21:44:02.158Z,-0.93
2023-01-19T21:46:33.224Z,-0.92
2023-01-19T21:49:00.742Z,-0.81
2023-01-19T21:51:28.354Z,-0.75
2023-01-19T21:53:59.580Z,-0.71
2023-01-19T21:56:29.629Z,-0.94
2023-01-19T21:58:56.703Z,-0.91
2023-01-19T22:01:23.741Z,-0.96
2023-01-19T22:03:53.847Z,-1.02
2023-01-19T22:06:20.711Z,-0.83
2023-01-19T22:08:47.176Z,-0.88
2023-01-19T22:11:14.420Z,-0.73
2023-01-19T22:13:40.941Z,-0.65
2023-01-19T22:16:11.427Z,-0.67
2023-01-19T22:18:38.303Z,-0.78
2023-01-19T22:21:12.154Z,-0.83
2023-01-19T22:23:39.720Z,-0.83
2023-01-19T22:26:06.409Z,-0.82
2023-01-19T22:28:33.031Z,-0.83
2023-01-19T22:31:07.188Z,-0.83
2023-01-19T22:33:33.537Z,-0.98
2023-01-19T22:36:17.016Z,-0.97
2023-01-19T22:38:43.678Z,-0.96
2023-01-19T22:41:14.149Z,-0.97
2023-01-19T22:43:40.479Z,-0.97
2023-01-19T22:46:08.727Z,-0.93
2023-01-19T22:48:35.257Z,-0.92
2023-01-19T22:51:01.553Z,-0.91
2023-01-19T22:53:27.893Z,-0.92
2023-01-19T22:55:54.170Z,-0.92
2023-01-19T22:58:21.553Z,-0.95
2023-01-19T23:00:47.835Z,-0.95
2023-01-19T23:03:14.146Z,-0.92
2023-01-19T23:05:40.438Z,-0.90
2023-01-19T23:08:06.774Z,-0.93
2023-01-19T23:10:34.842Z,-0.90
2023-01-19T23:13:01.133Z,-0.85
2023-01-19T23:15:27.450Z,-0.82
2023-01-19T23:17:53.822Z,-0.88
2023-01-19T23:20:20.219Z,-0.94
2023-01-19T23:22:46.539Z,-0.95
2023-01-19T23:25:13.068Z,-0.93
2023-01-19T23:27:39.382Z,-0.90
2023-01-19T23:30:05.949Z,-0.92
2023-01-19T23:32:32.464Z,-0.96
2023-01-19T23:34:58.762Z,-0.95
2023-01-19T23:37:25.067Z,-0.95
2023-01-19T23:39:51.319Z,-0.94
2023-01-19T23:42:17.628Z,-0.90
2023-01-19T23:44:44.015Z,-0.92
2023-01-19T23:47:10.304Z,-0.94
2023-01-19T23:49:36.603Z,-0.93
2023-01-19T23:52:02.918Z,-0.92
2023-01-19T23:54:29.235Z,-0.89
2023-01-19T23:56:55.533Z,-0.89
2023-01-19T23:59:21.813Z,-0.89
